Flight Track Log - Related Links

Times and Time Zones

All times are in EDT time to prevent confusion due to time zone crossing. See the UAL395 flight status page for this flight to view local times or setup timezone preferences in your user account.

Time Position Orientation Groundspeed Altitude Reporting Facility
EDT Latitude Longitude Course Direction KTS MPH feet Rate Location/Type
Thu 02:52:54 PM 36.0997 -115.1578 270° West 161 185 2,900  Level Los Angeles Center
Thu 02:53:36 PM 36.1214 -115.1772 324° Northwest 166 191 4,100 1,520 Climbing Los Angeles Center
Thu 02:54:09 PM 36.1169 -115.2092 260° West 204 235 4,800 1,770 Climbing Los Angeles Center
Thu 02:54:37 PM 36.1117 -115.2522 261° West 232 267 5,900 2,516 Climbing Los Angeles Center
Thu 02:55:00 PM 35.9069 -115.3853 207° Southwest  Level FlightAware Approximate
Thu 02:55:11 PM 36.0986 -115.2922 248° West 248 285 7,400  Level Los Angeles Center
Thu 02:55:38 PM 36.0622 -115.3136 205° Southwest 279 321 8,500 1,839 Climbing Los Angeles Center
Thu 02:56:00 PM 35.8834 -115.5009 270° West  Level FlightAware Approximate
Thu 02:56:13 PM 36.0242 -115.3328 202° Southwest 289 333 9,300  Level Los Angeles Center
Thu 02:56:39 PM 35.9900 -115.3586 211° Southwest 297 342 10,700 1,935 Climbing Los Angeles Center
Thu 02:57:00 PM 35.8833 -115.6345 270° West  Level FlightAware Approximate
Thu 02:57:15 PM 35.9725 -115.4100 247° West 311 358 11,300  Level Los Angeles Center
Thu 02:57:40 PM 35.9639 -115.4681 260° West 348 400 12,200 2,419 Climbing Los Angeles Center
Thu 02:58:00 PM 35.8833 -115.7680 270° West  Level FlightAware Approximate
Thu 02:58:17 PM 35.9553 -115.5322 261° West 348 400 13,800  Level Los Angeles Center
Thu 02:59:19 PM 35.9361 -115.6764 261° West 375 432 16,300 2,129 Climbing Los Angeles Center
Thu 03:00:21 PM 35.9169 -115.8106 260° West 395 455 18,200 1,920 Climbing Los Angeles Center
Thu 03:01:24 PM 35.9044 -115.9569 264° West 399 459 20,300 1,728 Climbing Los Angeles Center
Thu 03:02:26 PM 35.9761 -116.0617 310° West 400 460 21,800 1,694 Climbing Los Angeles Center
Thu 03:03:28 PM 36.0661 -116.1656 317° Northwest 411 473 23,800 1,403 Climbing Los Angeles Center
Thu 03:04:30 PM 36.1364 -116.2475 317° Northwest 408 470 24,700 1,306 Climbing Los Angeles Center
Thu 03:05:32 PM 36.2425 -116.3700 317° Northwest 431 496 26,500 1,452 Climbing Los Angeles Center
Thu 03:06:34 PM 36.3131 -116.4500 318° Northwest 431 496 27,700 1,548 Climbing Los Angeles Center
Thu 03:07:36 PM 36.4183 -116.5753 316° Northwest 438 504 29,700 1,113 Climbing Los Angeles Center
Thu 03:08:38 PM 36.5058 -116.6764 317° Northwest 433 498 30,000 145 Climbing Los Angeles Center
Thu 03:09:40 PM 36.6058 -116.7794 320° Northwest 427 491 30,000  Level Los Angeles Center
Thu 03:10:43 PM 36.7069 -116.8544 329° Northwest 423 487 30,000 -48 Level Los Angeles Center
Thu 03:11:45 PM 36.8061 -116.9303 329° Northwest 418 481 29,900 203 Descending Los Angeles Center
Thu 03:12:41 PM 36.9053 -117.0075 328° Northwest 418 481 30,400 763 Climbing Oakland Center
Thu 03:13:43 PM 37.0089 -117.0881 328° Northwest 430 495 31,400 780 Climbing Oakland Center
Thu 03:14:44 PM 37.0850 -117.2094 308° West 451 519 32,000 293 Climbing Oakland Center
Thu 03:15:46 PM 37.1114 -117.3689 282° West 461 531 32,000  Level Oakland Center
Thu 03:16:47 PM 37.1369 -117.5267 282° West 462 532 32,000  Level Oakland Center
Thu 03:17:49 PM 37.1633 -117.6900 282° West 469 540 32,000  Level Oakland Center
Thu 03:18:50 PM 37.1939 -117.8844 281° West 473 544 32,000  Level Oakland Center
Thu 03:19:52 PM 37.2197 -118.0469 281° West 473 544 32,000  Level Oakland Center
Thu 03:20:53 PM 37.2433 -118.2072 281° West 469 540 32,000  Level Oakland Center
Thu 03:21:55 PM 37.2667 -118.3675 280° West 468 539 32,000 -32 Level Oakland Center
Thu 03:23:58 PM 37.3142 -118.6833 281° West 472 543 31,900  Descending Oakland Center
Thu 03:24:59 PM 37.3367 -118.8442 280° West 469 540 32,000  Climbing Oakland Center
Thu 03:26:01 PM 37.3644 -119.0372 280° West 469 540 31,900 -49 Descending Oakland Center
Thu 03:27:02 PM 37.3889 -119.2008 281° West 482 555 31,900  Level Oakland Center
Thu 03:28:04 PM 37.4133 -119.3642 281° West 477 549 31,900 48 Level Oakland Center
Thu 03:29:06 PM 37.4328 -119.5222 279° West 464 534 32,000 49 Climbing Oakland Center
Thu 03:30:07 PM 37.4553 -119.6844 280° West 467 537 32,000 -98 Level Oakland Center
Thu 03:31:09 PM 37.4775 -119.8442 280° West 464 534 31,800 -585 Descending Oakland Center
Thu 03:32:10 PM 37.4983 -120.0039 279° West 462 532 30,800 -976 Descending Oakland Center
Thu 03:33:12 PM 37.5217 -120.1639 280° West 463 533 29,800 -1,268 Descending Oakland Center
Thu 03:34:13 PM 37.5481 -120.3508 280° West 453 521 28,200 -1,895 Descending Oakland Center
Thu 03:35:06 PM 37.5667 -120.5000 279° West 456 525 26,200 -2,187 Descending Northern Cal TRACON
Thu 03:36:00 PM 37.5833 -120.6333 279° West 443 510 24,300 -2,150 Descending Northern Cal TRACON
Thu 03:37:06 PM 37.6000 -120.8000 277° West 423 487 21,900 -2,095 Descending Northern Cal TRACON
Thu 03:38:06 PM 37.6167 -120.9333 279° West 409 471 19,900 -2,053 Descending Northern Cal TRACON
Thu 03:39:00 PM 37.6167 -121.0500 270° West 419 482 18,000 -2,053 Descending Northern Cal TRACON
Thu 03:40:00 PM 37.6000 -121.2000 262° West 401 461 16,000 -1,950 Descending Northern Cal TRACON
Thu 03:41:00 PM 37.5833 -121.3333 261° West 393 452 14,100 -2,083 Descending Northern Cal TRACON
Thu 03:42:01 PM 37.5667 -121.4500 260° West 375 432 11,800 -1,537 Descending Northern Cal TRACON
Thu 03:43:01 PM 37.5500 -121.5833 261° West 340 391 11,000 -432 Descending Northern Cal TRACON
Thu 03:44:06 PM 37.5333 -121.6833 258° West 282 325 10,900 -571 Descending Northern Cal TRACON
Thu 03:45:07 PM 37.5000 -121.7667 243° Southwest 257 296 9,800 -1,140 Descending Northern Cal TRACON
Thu 03:46:07 PM 37.4833 -121.8667 258° West 257 296 8,600 -1,100 Descending Northern Cal TRACON
Thu 03:47:07 PM 37.5000 -121.9500 284° West 248 285 7,600 -1,100 Descending Northern Cal TRACON
Thu 03:48:07 PM 37.5167 -122.0333 284° West 238 274 6,400 -1,050 Descending Northern Cal TRACON
Thu 03:49:07 PM 37.5333 -122.1000 288° West 196 226 5,500 -1,105 Descending Northern Cal TRACON
Thu 03:50:01 PM 37.5500 -122.1500 293° West 181 208 4,300 -1,582 Descending Northern Cal TRACON
Thu 03:50:38 PM 37.5619 -122.1817 295° West 185 213 3,100 -1,946 Descending Oakland Center

Login

Don't have an account? Register now (free) for customized features, flight alerts, and more!